sensor_id;sensor_type;location;lat;lon;timestamp;P1;durP1;ratioP1;P2;durP2;ratioP2
18322;SDS011;9287;49.456;11.064;2023-11-19T00:00:10;4.63;;;4.33;;
18322;SDS011;9287;49.456;11.064;2023-11-19T00:02:40;4.10;;;3.80;;
18322;SDS011;9287;49.456;11.064;2023-11-19T00:05:09;6.00;;;4.47;;
18322;SDS011;9287;49.456;11.064;2023-11-19T00:07:39;4.27;;;3.97;;
18322;SDS011;9287;49.456;11.064;2023-11-19T00:10:08;4.50;;;4.10;;
18322;SDS011;9287;49.456;11.064;2023-11-19T00:12:39;4.27;;;3.93;;
18322;SDS011;9287;49.456;11.064;2023-11-19T00:15:10;3.90;;;3.60;;
18322;SDS011;9287;49.456;11.064;2023-11-19T00:17:38;4.83;;;4.27;;
18322;SDS011;9287;49.456;11.064;2023-11-19T00:20:11;4.40;;;4.00;;
18322;SDS011;9287;49.456;11.064;2023-11-19T00:22:40;3.93;;;3.63;;
18322;SDS011;9287;49.456;11.064;2023-11-19T00:25:12;4.87;;;4.47;;
18322;SDS011;9287;49.456;11.064;2023-11-19T00:27:40;3.93;;;3.63;;
18322;SDS011;9287;49.456;11.064;2023-11-19T00:30:12;3.80;;;3.60;;
18322;SDS011;9287;49.456;11.064;2023-11-19T00:32:42;4.20;;;3.90;;
18322;SDS011;9287;49.456;11.064;2023-11-19T00:35:11;4.77;;;4.37;;
18322;SDS011;9287;49.456;11.064;2023-11-19T00:37:42;4.10;;;3.80;;
18322;SDS011;9287;49.456;11.064;2023-11-19T00:40:12;4.27;;;3.87;;
18322;SDS011;9287;49.456;11.064;2023-11-19T00:42:42;4.40;;;4.00;;
18322;SDS011;9287;49.456;11.064;2023-11-19T00:45:12;3.83;;;3.53;;
18322;SDS011;9287;49.456;11.064;2023-11-19T00:47:40;4.13;;;3.83;;
18322;SDS011;9287;49.456;11.064;2023-11-19T00:50:10;4.30;;;4.00;;
18322;SDS011;9287;49.456;11.064;2023-11-19T00:52:39;5.40;;;4.70;;
18322;SDS011;9287;49.456;11.064;2023-11-19T00:55:08;4.20;;;3.90;;
18322;SDS011;9287;49.456;11.064;2023-11-19T00:57:36;4.27;;;3.97;;
18322;SDS011;9287;49.456;11.064;2023-11-19T01:00:05;4.73;;;4.23;;
18322;SDS011;9287;49.456;11.064;2023-11-19T01:02:46;4.10;;;3.70;;
18322;SDS011;9287;49.456;11.064;2023-11-19T01:05:18;4.70;;;4.30;;
18322;SDS011;9287;49.456;11.064;2023-11-19T01:07:48;4.33;;;4.03;;
18322;SDS011;9287;49.456;11.064;2023-11-19T01:10:16;4.53;;;4.17;;
18322;SDS011;9287;49.456;11.064;2023-11-19T01:12:45;4.63;;;4.23;;
18322;SDS011;9287;49.456;11.064;2023-11-19T01:15:14;4.67;;;4.27;;
18322;SDS011;9287;49.456;11.064;2023-11-19T01:17:44;4.97;;;4.50;;
18322;SDS011;9287;49.456;11.064;2023-11-19T01:20:17;4.87;;;4.47;;
18322;SDS011;9287;49.456;11.064;2023-11-19T01:22:46;4.17;;;3.87;;
18322;SDS011;9287;49.456;11.064;2023-11-19T01:25:15;5.00;;;4.60;;
18322;SDS011;9287;49.456;11.064;2023-11-19T01:27:43;4.43;;;4.13;;
18322;SDS011;9287;49.456;11.064;2023-11-19T01:30:11;4.37;;;4.07;;
18322;SDS011;9287;49.456;11.064;2023-11-19T01:32:40;3.97;;;3.77;;
18322;SDS011;9287;49.456;11.064;2023-11-19T01:35:11;3.93;;;3.63;;
18322;SDS011;9287;49.456;11.064;2023-11-19T01:37:39;5.53;;;5.07;;
18322;SDS011;9287;49.456;11.064;2023-11-19T01:40:07;4.53;;;4.13;;
18322;SDS011;9287;49.456;11.064;2023-11-19T01:42:38;5.30;;;4.80;;
18322;SDS011;9287;49.456;11.064;2023-11-19T01:45:07;4.93;;;4.53;;
18322;SDS011;9287;49.456;11.064;2023-11-19T01:47:35;4.77;;;4.37;;
18322;SDS011;9287;49.456;11.064;2023-11-19T01:50:05;7.37;;;6.67;;
18322;SDS011;9287;49.456;11.064;2023-11-19T01:52:37;4.90;;;4.50;;
18322;SDS011;9287;49.456;11.064;2023-11-19T01:55:06;5.40;;;4.93;;
18322;SDS011;9287;49.456;11.064;2023-11-19T01:57:36;5.40;;;4.90;;
18322;SDS011;9287;49.456;11.064;2023-11-19T02:00:05;5.10;;;4.67;;
18322;SDS011;9287;49.456;11.064;2023-11-19T02:02:38;5.97;;;5.40;;
18322;SDS011;9287;49.456;11.064;2023-11-19T02:05:08;5.27;;;4.87;;
18322;SDS011;9287;49.456;11.064;2023-11-19T02:07:37;7.43;;;6.73;;
18322;SDS011;9287;49.456;11.064;2023-11-19T02:10:05;5.27;;;4.77;;
18322;SDS011;9287;49.456;11.064;2023-11-19T02:12:39;5.30;;;4.87;;
18322;SDS011;9287;49.456;11.064;2023-11-19T02:15:09;5.30;;;4.80;;
18322;SDS011;9287;49.456;11.064;2023-11-19T02:17:38;5.27;;;4.77;;
18322;SDS011;9287;49.456;11.064;2023-11-19T02:20:07;5.60;;;5.10;;
18322;SDS011;9287;49.456;11.064;2023-11-19T02:22:39;5.47;;;5.03;;
18322;SDS011;9287;49.456;11.064;2023-11-19T02:25:07;5.90;;;5.40;;
18322;SDS011;9287;49.456;11.064;2023-11-19T02:27:47;5.27;;;4.87;;
18322;SDS011;9287;49.456;11.064;2023-11-19T02:30:18;5.97;;;5.47;;
18322;SDS011;9287;49.456;11.064;2023-11-19T02:32:47;5.43;;;5.03;;
18322;SDS011;9287;49.456;11.064;2023-11-19T02:35:15;6.27;;;5.67;;
18322;SDS011;9287;49.456;11.064;2023-11-19T02:37:43;6.33;;;5.83;;
18322;SDS011;9287;49.456;11.064;2023-11-19T02:40:12;6.20;;;5.60;;
18322;SDS011;9287;49.456;11.064;2023-11-19T02:42:40;5.73;;;5.23;;
18322;SDS011;9287;49.456;11.064;2023-11-19T02:45:10;6.50;;;5.80;;
18322;SDS011;9287;49.456;11.064;2023-11-19T02:47:40;6.63;;;6.10;;
18322;SDS011;9287;49.456;11.064;2023-11-19T02:50:10;6.07;;;5.30;;
18322;SDS011;9287;49.456;11.064;2023-11-19T02:52:40;5.70;;;5.20;;
18322;SDS011;9287;49.456;11.064;2023-11-19T02:55:08;6.43;;;5.67;;
18322;SDS011;9287;49.456;11.064;2023-11-19T02:57:39;7.47;;;6.63;;
18322;SDS011;9287;49.456;11.064;2023-11-19T03:00:14;6.53;;;5.93;;
18322;SDS011;9287;49.456;11.064;2023-11-19T03:02:42;7.53;;;6.80;;
18322;SDS011;9287;49.456;11.064;2023-11-19T03:05:12;6.30;;;5.80;;
18322;SDS011;9287;49.456;11.064;2023-11-19T03:07:41;7.17;;;6.57;;
18322;SDS011;9287;49.456;11.064;2023-11-19T03:10:12;7.37;;;6.47;;
18322;SDS011;9287;49.456;11.064;2023-11-19T03:12:41;7.13;;;6.13;;
18322;SDS011;9287;49.456;11.064;2023-11-19T03:15:10;6.77;;;5.60;;
18322;SDS011;9287;49.456;11.064;2023-11-19T03:17:39;7.10;;;6.37;;
18322;SDS011;9287;49.456;11.064;2023-11-19T03:20:09;6.47;;;5.90;;
18322;SDS011;9287;49.456;11.064;2023-11-19T03:22:41;6.50;;;5.90;;
18322;SDS011;9287;49.456;11.064;2023-11-19T03:25:10;7.00;;;6.20;;
18322;SDS011;9287;49.456;11.064;2023-11-19T03:27:39;6.10;;;5.53;;
18322;SDS011;9287;49.456;11.064;2023-11-19T03:30:09;7.00;;;6.30;;
18322;SDS011;9287;49.456;11.064;2023-11-19T03:32:37;7.50;;;6.80;;
18322;SDS011;9287;49.456;11.064;2023-11-19T03:35:08;7.87;;;6.70;;
18322;SDS011;9287;49.456;11.064;2023-11-19T03:37:38;6.87;;;6.17;;
18322;SDS011;9287;49.456;11.064;2023-11-19T03:40:06;6.73;;;6.13;;
18322;SDS011;9287;49.456;11.064;2023-11-19T03:42:39;7.23;;;6.17;;
18322;SDS011;9287;49.456;11.064;2023-11-19T03:45:09;7.47;;;6.67;;
18322;SDS011;9287;49.456;11.064;2023-11-19T03:47:37;7.17;;;6.47;;
18322;SDS011;9287;49.456;11.064;2023-11-19T03:50:08;6.93;;;6.33;;
18322;SDS011;9287;49.456;11.064;2023-11-19T03:52:36;8.37;;;7.27;;
18322;SDS011;9287;49.456;11.064;2023-11-19T03:55:07;7.67;;;6.97;;
18322;SDS011;9287;49.456;11.064;2023-11-19T03:57:36;8.83;;;7.87;;
18322;SDS011;9287;49.456;11.064;2023-11-19T04:00:04;8.83;;;7.67;;
18322;SDS011;9287;49.456;11.064;2023-11-19T04:02:36;10.30;;;8.07;;
18322;SDS011;9287;49.456;11.064;2023-11-19T04:05:04;9.07;;;8.17;;
18322;SDS011;9287;49.456;11.064;2023-11-19T04:07:34;8.80;;;7.90;;
18322;SDS011;9287;49.456;11.064;2023-11-19T04:10:02;8.70;;;7.60;;
18322;SDS011;9287;49.456;11.064;2023-11-19T04:12:30;10.17;;;8.17;;
18322;SDS011;9287;49.456;11.064;2023-11-19T04:14:58;9.90;;;8.83;;
18322;SDS011;9287;49.456;11.064;2023-11-19T04:17:27;9.97;;;8.97;;
18322;SDS011;9287;49.456;11.064;2023-11-19T04:19:55;9.60;;;8.03;;
18322;SDS011;9287;49.456;11.064;2023-11-19T04:22:23;10.90;;;8.40;;
18322;SDS011;9287;49.456;11.064;2023-11-19T04:24:52;9.93;;;8.83;;
18322;SDS011;9287;49.456;11.064;2023-11-19T04:27:21;9.77;;;8.70;;
18322;SDS011;9287;49.456;11.064;2023-11-19T04:29:48;10.27;;;9.00;;
18322;SDS011;9287;49.456;11.064;2023-11-19T04:32:20;8.67;;;7.83;;
18322;SDS011;9287;49.456;11.064;2023-11-19T04:34:48;10.03;;;8.80;;
18322;SDS011;9287;49.456;11.064;2023-11-19T04:37:15;11.20;;;8.67;;
18322;SDS011;9287;49.456;11.064;2023-11-19T04:39:43;8.77;;;7.87;;
18322;SDS011;9287;49.456;11.064;2023-11-19T04:42:13;9.27;;;8.17;;
18322;SDS011;9287;49.456;11.064;2023-11-19T04:44:43;10.23;;;8.70;;
18322;SDS011;9287;49.456;11.064;2023-11-19T04:47:11;8.83;;;7.90;;
18322;SDS011;9287;49.456;11.064;2023-11-19T04:49:40;9.37;;;8.30;;
18322;SDS011;9287;49.456;11.064;2023-11-19T04:52:09;10.40;;;8.40;;
18322;SDS011;9287;49.456;11.064;2023-11-19T04:54:40;8.90;;;8.00;;
18322;SDS011;9287;49.456;11.064;2023-11-19T04:57:09;10.73;;;8.37;;
18322;SDS011;9287;49.456;11.064;2023-11-19T04:59:41;9.00;;;7.77;;
18322;SDS011;9287;49.456;11.064;2023-11-19T05:02:09;8.93;;;8.03;;
18322;SDS011;9287;49.456;11.064;2023-11-19T05:04:37;11.03;;;8.50;;
18322;SDS011;9287;49.456;11.064;2023-11-19T05:07:09;10.47;;;8.43;;
18322;SDS011;9287;49.456;11.064;2023-11-19T05:09:37;9.07;;;8.17;;
18322;SDS011;9287;49.456;11.064;2023-11-19T05:12:06;8.77;;;7.87;;
18322;SDS011;9287;49.456;11.064;2023-11-19T05:14:38;9.10;;;8.10;;
18322;SDS011;9287;49.456;11.064;2023-11-19T05:17:07;9.23;;;7.40;;
18322;SDS011;9287;49.456;11.064;2023-11-19T05:19:35;9.50;;;8.43;;
18322;SDS011;9287;49.456;11.064;2023-11-19T05:22:03;9.07;;;8.17;;
18322;SDS011;9287;49.456;11.064;2023-11-19T05:24:32;9.57;;;8.57;;
18322;SDS011;9287;49.456;11.064;2023-11-19T05:27:02;9.20;;;8.17;;
18322;SDS011;9287;49.456;11.064;2023-11-19T05:29:30;9.27;;;8.10;;
18322;SDS011;9287;49.456;11.064;2023-11-19T05:31:58;9.27;;;8.30;;
18322;SDS011;9287;49.456;11.064;2023-11-19T05:34:27;9.50;;;8.37;;
18322;SDS011;9287;49.456;11.064;2023-11-19T05:36:55;10.27;;;8.60;;
18322;SDS011;9287;49.456;11.064;2023-11-19T05:39:23;10.73;;;9.30;;
18322;SDS011;9287;49.456;11.064;2023-11-19T05:41:53;10.77;;;9.60;;
18322;SDS011;9287;49.456;11.064;2023-11-19T05:44:20;10.23;;;8.80;;
18322;SDS011;9287;49.456;11.064;2023-11-19T05:46:48;9.00;;;8.03;;
18322;SDS011;9287;49.456;11.064;2023-11-19T05:49:16;8.70;;;7.80;;
18322;SDS011;9287;49.456;11.064;2023-11-19T05:51:45;9.50;;;8.50;;
18322;SDS011;9287;49.456;11.064;2023-11-19T05:54:13;8.00;;;7.20;;
18322;SDS011;9287;49.456;11.064;2023-11-19T05:56:41;9.37;;;8.33;;
18322;SDS011;9287;49.456;11.064;2023-11-19T05:59:09;9.10;;;7.97;;
18322;SDS011;9287;49.456;11.064;2023-11-19T06:01:41;8.90;;;7.83;;
18322;SDS011;9287;49.456;11.064;2023-11-19T06:04:10;9.03;;;7.77;;
18322;SDS011;9287;49.456;11.064;2023-11-19T06:06:38;8.53;;;7.63;;
18322;SDS011;9287;49.456;11.064;2023-11-19T06:09:08;8.17;;;7.37;;
18322;SDS011;9287;49.456;11.064;2023-11-19T06:11:39;7.80;;;6.87;;
18322;SDS011;9287;49.456;11.064;2023-11-19T06:14:07;8.70;;;7.43;;
18322;SDS011;9287;49.456;11.064;2023-11-19T06:16:35;8.00;;;7.20;;
18322;SDS011;9287;49.456;11.064;2023-11-19T06:19:06;8.47;;;7.33;;
18322;SDS011;9287;49.456;11.064;2023-11-19T06:21:36;6.87;;;6.23;;
18322;SDS011;9287;49.456;11.064;2023-11-19T06:24:05;8.93;;;7.30;;
18322;SDS011;9287;49.456;11.064;2023-11-19T06:26:35;7.00;;;6.30;;
18322;SDS011;9287;49.456;11.064;2023-11-19T06:29:05;7.90;;;5.97;;
18322;SDS011;9287;49.456;11.064;2023-11-19T06:31:33;6.90;;;6.20;;
18322;SDS011;9287;49.456;11.064;2023-11-19T06:34:04;6.97;;;6.20;;
18322;SDS011;9287;49.456;11.064;2023-11-19T06:36:33;6.57;;;5.97;;
18322;SDS011;9287;49.456;11.064;2023-11-19T06:39:01;6.60;;;5.93;;
18322;SDS011;9287;49.456;11.064;2023-11-19T06:41:30;6.43;;;5.80;;
18322;SDS011;9287;49.456;11.064;2023-11-19T06:43:59;6.23;;;5.53;;
18322;SDS011;9287;49.456;11.064;2023-11-19T06:46:27;5.47;;;4.97;;
18322;SDS011;9287;49.456;11.064;2023-11-19T06:48:55;5.23;;;4.73;;
18322;SDS011;9287;49.456;11.064;2023-11-19T06:51:23;5.20;;;4.70;;
18322;SDS011;9287;49.456;11.064;2023-11-19T06:53:51;5.37;;;4.80;;
18322;SDS011;9287;49.456;11.064;2023-11-19T06:56:19;5.07;;;4.57;;
18322;SDS011;9287;49.456;11.064;2023-11-19T06:58:48;4.90;;;4.40;;
18322;SDS011;9287;49.456;11.064;2023-11-19T07:01:18;3.90;;;3.57;;
18322;SDS011;9287;49.456;11.064;2023-11-19T07:03:47;4.20;;;3.80;;
18322;SDS011;9287;49.456;11.064;2023-11-19T07:06:16;6.17;;;3.07;;
18322;SDS011;9287;49.456;11.064;2023-11-19T07:08:44;4.17;;;3.80;;
18322;SDS011;9287;49.456;11.064;2023-11-19T07:11:12;3.40;;;3.10;;
18322;SDS011;9287;49.456;11.064;2023-11-19T07:13:42;3.70;;;3.40;;
18322;SDS011;9287;49.456;11.064;2023-11-19T07:16:13;3.20;;;2.90;;
18322;SDS011;9287;49.456;11.064;2023-11-19T07:18:43;2.60;;;2.40;;
18322;SDS011;9287;49.456;11.064;2023-11-19T07:21:11;2.30;;;2.10;;
18322;SDS011;9287;49.456;11.064;2023-11-19T07:23:39;2.30;;;2.10;;
18322;SDS011;9287;49.456;11.064;2023-11-19T07:26:08;2.40;;;2.20;;
18322;SDS011;9287;49.456;11.064;2023-11-19T07:28:36;1.97;;;1.87;;
18322;SDS011;9287;49.456;11.064;2023-11-19T07:31:04;2.00;;;1.80;;
18322;SDS011;9287;49.456;11.064;2023-11-19T07:33:34;1.83;;;1.70;;
18322;SDS011;9287;49.456;11.064;2023-11-19T07:36:03;1.97;;;1.87;;
18322;SDS011;9287;49.456;11.064;2023-11-19T07:38:32;1.93;;;1.83;;
18322;SDS011;9287;49.456;11.064;2023-11-19T07:41:00;3.43;;;2.00;;
18322;SDS011;9287;49.456;11.064;2023-11-19T07:43:27;2.77;;;2.47;;
18322;SDS011;9287;49.456;11.064;2023-11-19T07:45:55;2.23;;;2.03;;
18322;SDS011;9287;49.456;11.064;2023-11-19T07:48:25;2.40;;;1.77;;
18322;SDS011;9287;49.456;11.064;2023-11-19T07:50:53;1.70;;;1.60;;
18322;SDS011;9287;49.456;11.064;2023-11-19T07:53:22;1.60;;;1.50;;
18322;SDS011;9287;49.456;11.064;2023-11-19T07:55:50;1.73;;;1.63;;
18322;SDS011;9287;49.456;11.064;2023-11-19T07:58:18;2.97;;;2.70;;
18322;SDS011;9287;49.456;11.064;2023-11-19T08:00:46;2.13;;;2.03;;
18322;SDS011;9287;49.456;11.064;2023-11-19T08:03:14;2.63;;;2.30;;
18322;SDS011;9287;49.456;11.064;2023-11-19T08:05:42;2.97;;;2.77;;
18322;SDS011;9287;49.456;11.064;2023-11-19T08:08:11;1.03;;;0.93;;
18322;SDS011;9287;49.456;11.064;2023-11-19T08:10:40;1.63;;;0.70;;
18322;SDS011;9287;49.456;11.064;2023-11-19T08:13:09;0.80;;;0.80;;
18322;SDS011;9287;49.456;11.064;2023-11-19T08:15:37;1.33;;;0.50;;
18322;SDS011;9287;49.456;11.064;2023-11-19T08:18:05;0.50;;;0.50;;
18322;SDS011;9287;49.456;11.064;2023-11-19T08:20:33;0.40;;;0.40;;
18322;SDS011;9287;49.456;11.064;2023-11-19T08:23:01;0.93;;;0.30;;
18322;SDS011;9287;49.456;11.064;2023-11-19T08:25:30;2.10;;;0.40;;
18322;SDS011;9287;49.456;11.064;2023-11-19T08:28:01;0.40;;;0.40;;
18322;SDS011;9287;49.456;11.064;2023-11-19T08:30:29;0.77;;;0.43;;
18322;SDS011;9287;49.456;11.064;2023-11-19T08:32:58;0.40;;;0.40;;
18322;SDS011;9287;49.456;11.064;2023-11-19T08:35:29;0.40;;;0.40;;
18322;SDS011;9287;49.456;11.064;2023-11-19T08:37:57;1.47;;;0.50;;
18322;SDS011;9287;49.456;11.064;2023-11-19T08:40:25;1.33;;;0.57;;
18322;SDS011;9287;49.456;11.064;2023-11-19T08:42:53;0.80;;;0.60;;
18322;SDS011;9287;49.456;11.064;2023-11-19T08:45:25;0.50;;;0.50;;
18322;SDS011;9287;49.456;11.064;2023-11-19T08:47:53;1.40;;;0.60;;
18322;SDS011;9287;49.456;11.064;2023-11-19T08:50:22;0.70;;;0.40;;
18322;SDS011;9287;49.456;11.064;2023-11-19T08:52:50;0.60;;;0.50;;
18322;SDS011;9287;49.456;11.064;2023-11-19T08:55:18;0.50;;;0.50;;
18322;SDS011;9287;49.456;11.064;2023-11-19T08:57:46;0.60;;;0.60;;
18322;SDS011;9287;49.456;11.064;2023-11-19T09:00:14;0.90;;;0.80;;
18322;SDS011;9287;49.456;11.064;2023-11-19T09:02:44;0.50;;;0.43;;
18322;SDS011;9287;49.456;11.064;2023-11-19T09:05:12;0.80;;;0.60;;
18322;SDS011;9287;49.456;11.064;2023-11-19T09:07:40;1.40;;;0.60;;
18322;SDS011;9287;49.456;11.064;2023-11-19T09:10:08;0.80;;;0.60;;
18322;SDS011;9287;49.456;11.064;2023-11-19T09:12:37;1.53;;;0.50;;
18322;SDS011;9287;49.456;11.064;2023-11-19T09:15:05;0.80;;;0.60;;
18322;SDS011;9287;49.456;11.064;2023-11-19T09:17:34;0.80;;;0.60;;
18322;SDS011;9287;49.456;11.064;2023-11-19T09:20:03;1.57;;;0.40;;
18322;SDS011;9287;49.456;11.064;2023-11-19T09:22:32;0.77;;;0.50;;
18322;SDS011;9287;49.456;11.064;2023-11-19T09:24:59;1.60;;;1.03;;
18322;SDS011;9287;49.456;11.064;2023-11-19T09:27:27;1.83;;;1.03;;
18322;SDS011;9287;49.456;11.064;2023-11-19T09:29:55;0.67;;;0.60;;
18322;SDS011;9287;49.456;11.064;2023-11-19T09:32:25;0.60;;;0.53;;
18322;SDS011;9287;49.456;11.064;2023-11-19T09:34:53;1.70;;;0.70;;
18322;SDS011;9287;49.456;11.064;2023-11-19T09:37:22;1.00;;;0.67;;
18322;SDS011;9287;49.456;11.064;2023-11-19T09:39:50;0.93;;;0.30;;
18322;SDS011;9287;49.456;11.064;2023-11-19T09:42:17;0.83;;;0.40;;
18322;SDS011;9287;49.456;11.064;2023-11-19T09:44:46;0.33;;;0.30;;
18322;SDS011;9287;49.456;11.064;2023-11-19T09:47:16;1.13;;;0.40;;
18322;SDS011;9287;49.456;11.064;2023-11-19T09:49:46;0.83;;;0.50;;
18322;SDS011;9287;49.456;11.064;2023-11-19T09:52:16;0.50;;;0.50;;
18322;SDS011;9287;49.456;11.064;2023-11-19T09:54:45;0.83;;;0.40;;
18322;SDS011;9287;49.456;11.064;2023-11-19T09:57:13;0.83;;;0.33;;
18322;SDS011;9287;49.456;11.064;2023-11-19T09:59:44;1.23;;;0.40;;
18322;SDS011;9287;49.456;11.064;2023-11-19T10:02:14;0.77;;;0.40;;
18322;SDS011;9287;49.456;11.064;2023-11-19T10:04:44;1.80;;;0.40;;
18322;SDS011;9287;49.456;11.064;2023-11-19T10:07:14;0.87;;;0.50;;
18322;SDS011;9287;49.456;11.064;2023-11-19T10:09:42;1.13;;;0.50;;
18322;SDS011;9287;49.456;11.064;2023-11-19T10:12:11;2.33;;;0.60;;
18322;SDS011;9287;49.456;11.064;2023-11-19T10:14:39;1.27;;;0.50;;
18322;SDS011;9287;49.456;11.064;2023-11-19T10:17:09;0.80;;;0.47;;
18322;SDS011;9287;49.456;11.064;2023-11-19T10:19:39;1.07;;;0.60;;
18322;SDS011;9287;49.456;11.064;2023-11-19T10:22:12;0.80;;;0.40;;
18322;SDS011;9287;49.456;11.064;2023-11-19T10:24:48;0.57;;;0.50;;
18322;SDS011;9287;49.456;11.064;2023-11-19T10:27:25;1.97;;;0.60;;
18322;SDS011;9287;49.456;11.064;2023-11-19T10:29:55;0.60;;;0.40;;
18322;SDS011;9287;49.456;11.064;2023-11-19T10:32:27;1.37;;;0.50;;
18322;SDS011;9287;49.456;11.064;2023-11-19T10:35:06;1.50;;;0.60;;
18322;SDS011;9287;49.456;11.064;2023-11-19T10:37:36;3.50;;;0.60;;
18322;SDS011;9287;49.456;11.064;2023-11-19T10:40:05;0.87;;;0.50;;
18322;SDS011;9287;49.456;11.064;2023-11-19T10:42:38;0.80;;;0.43;;
18322;SDS011;9287;49.456;11.064;2023-11-19T10:45:15;1.20;;;0.50;;
18322;SDS011;9287;49.456;11.064;2023-11-19T10:47:52;2.13;;;0.60;;
18322;SDS011;9287;49.456;11.064;2023-11-19T10:50:23;2.43;;;0.50;;
18322;SDS011;9287;49.456;11.064;2023-11-19T10:52:52;1.17;;;0.50;;
18322;SDS011;9287;49.456;11.064;2023-11-19T10:55:30;0.97;;;0.50;;
18322;SDS011;9287;49.456;11.064;2023-11-19T10:58:01;2.30;;;0.80;;
18322;SDS011;9287;49.456;11.064;2023-11-19T11:00:37;1.33;;;0.60;;
18322;SDS011;9287;49.456;11.064;2023-11-19T11:03:09;4.23;;;1.33;;
18322;SDS011;9287;49.456;11.064;2023-11-19T11:05:46;9.27;;;3.07;;
18322;SDS011;9287;49.456;11.064;2023-11-19T11:08:15;2.47;;;0.40;;
18322;SDS011;9287;49.456;11.064;2023-11-19T11:10:44;2.20;;;0.80;;
18322;SDS011;9287;49.456;11.064;2023-11-19T11:13:22;2.57;;;0.63;;
18322;SDS011;9287;49.456;11.064;2023-11-19T11:15:56;15.23;;;4.10;;
18322;SDS011;9287;49.456;11.064;2023-11-19T11:18:26;1.20;;;0.50;;
18322;SDS011;9287;49.456;11.064;2023-11-19T11:20:56;15.83;;;2.53;;
18322;SDS011;9287;49.456;11.064;2023-11-19T11:23:36;13.93;;;4.67;;
18322;SDS011;9287;49.456;11.064;2023-11-19T11:26:23;1.73;;;0.63;;
18322;SDS011;9287;49.456;11.064;2023-11-19T11:29:30;3.00;;;1.47;;
18322;SDS011;9287;49.456;11.064;2023-11-19T11:32:08;1.73;;;0.70;;
18322;SDS011;9287;49.456;11.064;2023-11-19T11:35:03;8.50;;;3.40;;
18322;SDS011;9287;49.456;11.064;2023-11-19T11:37:43;7.57;;;2.90;;
18322;SDS011;9287;49.456;11.064;2023-11-19T11:40:14;3.67;;;1.37;;
18322;SDS011;9287;49.456;11.064;2023-11-19T11:42:45;6.47;;;2.43;;
18322;SDS011;9287;49.456;11.064;2023-11-19T11:45:15;9.73;;;2.90;;
18322;SDS011;9287;49.456;11.064;2023-11-19T11:48:12;6.60;;;1.93;;
18322;SDS011;9287;49.456;11.064;2023-11-19T11:50:48;3.13;;;1.77;;
18322;SDS011;9287;49.456;11.064;2023-11-19T11:53:19;4.63;;;1.53;;
18322;SDS011;9287;49.456;11.064;2023-11-19T11:55:54;2.30;;;0.60;;
18322;SDS011;9287;49.456;11.064;2023-11-19T11:58:26;4.93;;;1.90;;
18322;SDS011;9287;49.456;11.064;2023-11-19T12:01:06;3.30;;;1.30;;
18322;SDS011;9287;49.456;11.064;2023-11-19T12:03:38;2.53;;;0.87;;
18322;SDS011;9287;49.456;11.064;2023-11-19T12:06:15;4.30;;;1.40;;
18322;SDS011;9287;49.456;11.064;2023-11-19T12:08:44;3.13;;;1.20;;
18322;SDS011;9287;49.456;11.064;2023-11-19T12:11:16;2.73;;;1.17;;
18322;SDS011;9287;49.456;11.064;2023-11-19T12:13:47;2.70;;;0.87;;
18322;SDS011;9287;49.456;11.064;2023-11-19T12:16:32;4.43;;;1.63;;
18322;SDS011;9287;49.456;11.064;2023-11-19T12:19:07;2.73;;;1.20;;
18322;SDS011;9287;49.456;11.064;2023-11-19T12:21:45;3.53;;;1.53;;
18322;SDS011;9287;49.456;11.064;2023-11-19T12:24:13;5.30;;;0.90;;
18322;SDS011;9287;49.456;11.064;2023-11-19T12:26:44;2.40;;;1.20;;
18322;SDS011;9287;49.456;11.064;2023-11-19T12:29:14;4.47;;;1.60;;
18322;SDS011;9287;49.456;11.064;2023-11-19T12:31:53;2.50;;;0.93;;
18322;SDS011;9287;49.456;11.064;2023-11-19T12:34:21;2.03;;;0.80;;
18322;SDS011;9287;49.456;11.064;2023-11-19T12:36:51;2.80;;;0.90;;
18322;SDS011;9287;49.456;11.064;2023-11-19T12:39:20;0.90;;;0.70;;
18322;SDS011;9287;49.456;11.064;2023-11-19T12:41:52;2.47;;;1.17;;
18322;SDS011;9287;49.456;11.064;2023-11-19T12:44:21;3.47;;;1.00;;
18322;SDS011;9287;49.456;11.064;2023-11-19T12:47:01;3.07;;;1.30;;
18322;SDS011;9287;49.456;11.064;2023-11-19T12:49:30;2.27;;;0.87;;
18322;SDS011;9287;49.456;11.064;2023-11-19T12:51:58;0.90;;;0.60;;
18322;SDS011;9287;49.456;11.064;2023-11-19T12:54:34;4.20;;;1.43;;
18322;SDS011;9287;49.456;11.064;2023-11-19T12:57:04;2.70;;;0.40;;
18322;SDS011;9287;49.456;11.064;2023-11-19T12:59:35;3.90;;;1.00;;
18322;SDS011;9287;49.456;11.064;2023-11-19T13:02:04;0.70;;;0.47;;
18322;SDS011;9287;49.456;11.064;2023-11-19T13:04:33;0.97;;;0.43;;
18322;SDS011;9287;49.456;11.064;2023-11-19T13:07:02;2.10;;;0.60;;
18322;SDS011;9287;49.456;11.064;2023-11-19T13:09:32;4.37;;;0.80;;
18322;SDS011;9287;49.456;11.064;2023-11-19T13:12:11;3.90;;;0.97;;
18322;SDS011;9287;49.456;11.064;2023-11-19T13:14:40;1.00;;;0.60;;
18322;SDS011;9287;49.456;11.064;2023-11-19T13:17:14;2.73;;;0.70;;
18322;SDS011;9287;49.456;11.064;2023-11-19T13:19:42;2.50;;;0.60;;
18322;SDS011;9287;49.456;11.064;2023-11-19T13:22:11;0.97;;;0.60;;
18322;SDS011;9287;49.456;11.064;2023-11-19T13:24:39;0.70;;;0.40;;
18322;SDS011;9287;49.456;11.064;2023-11-19T13:27:09;2.83;;;0.60;;
18322;SDS011;9287;49.456;11.064;2023-11-19T13:29:36;1.43;;;0.60;;
18322;SDS011;9287;49.456;11.064;2023-11-19T13:32:04;1.23;;;0.50;;
18322;SDS011;9287;49.456;11.064;2023-11-19T13:34:34;3.00;;;0.60;;
18322;SDS011;9287;49.456;11.064;2023-11-19T13:37:02;1.10;;;0.70;;
18322;SDS011;9287;49.456;11.064;2023-11-19T13:39:30;0.90;;;0.40;;
18322;SDS011;9287;49.456;11.064;2023-11-19T13:42:00;3.20;;;0.80;;
18322;SDS011;9287;49.456;11.064;2023-11-19T13:44:31;2.53;;;0.50;;
18322;SDS011;9287;49.456;11.064;2023-11-19T13:46:59;0.97;;;0.70;;
18322;SDS011;9287;49.456;11.064;2023-11-19T13:49:26;1.80;;;0.53;;
18322;SDS011;9287;49.456;11.064;2023-11-19T13:51:56;0.60;;;0.50;;
18322;SDS011;9287;49.456;11.064;2023-11-19T13:54:25;0.80;;;0.50;;
18322;SDS011;9287;49.456;11.064;2023-11-19T13:56:54;2.73;;;0.70;;
18322;SDS011;9287;49.456;11.064;2023-11-19T13:59:24;1.27;;;0.70;;
18322;SDS011;9287;49.456;11.064;2023-11-19T14:01:52;1.97;;;0.60;;
18322;SDS011;9287;49.456;11.064;2023-11-19T14:04:20;2.50;;;0.60;;
18322;SDS011;9287;49.456;11.064;2023-11-19T14:06:49;3.13;;;0.50;;
18322;SDS011;9287;49.456;11.064;2023-11-19T14:09:18;0.67;;;0.57;;
18322;SDS011;9287;49.456;11.064;2023-11-19T14:11:47;2.10;;;0.70;;
18322;SDS011;9287;49.456;11.064;2023-11-19T14:14:17;1.33;;;0.70;;
18322;SDS011;9287;49.456;11.064;2023-11-19T14:16:46;2.33;;;0.67;;
18322;SDS011;9287;49.456;11.064;2023-11-19T14:19:14;1.03;;;0.50;;
18322;SDS011;9287;49.456;11.064;2023-11-19T14:21:42;0.80;;;0.60;;
18322;SDS011;9287;49.456;11.064;2023-11-19T14:24:11;1.43;;;0.60;;
18322;SDS011;9287;49.456;11.064;2023-11-19T14:26:41;0.80;;;0.40;;
18322;SDS011;9287;49.456;11.064;2023-11-19T14:29:09;1.53;;;0.40;;
18322;SDS011;9287;49.456;11.064;2023-11-19T14:31:36;6.60;;;0.50;;
18322;SDS011;9287;49.456;11.064;2023-11-19T14:34:04;0.97;;;0.50;;
18322;SDS011;9287;49.456;11.064;2023-11-19T14:36:32;1.37;;;0.60;;
18322;SDS011;9287;49.456;11.064;2023-11-19T14:39:01;0.80;;;0.50;;
18322;SDS011;9287;49.456;11.064;2023-11-19T14:41:30;1.10;;;0.40;;
18322;SDS011;9287;49.456;11.064;2023-11-19T14:43:59;2.43;;;0.50;;
18322;SDS011;9287;49.456;11.064;2023-11-19T14:46:27;0.97;;;0.40;;
18322;SDS011;9287;49.456;11.064;2023-11-19T14:48:55;0.80;;;0.47;;
18322;SDS011;9287;49.456;11.064;2023-11-19T14:51:23;0.90;;;0.50;;
18322;SDS011;9287;49.456;11.064;2023-11-19T14:53:51;0.90;;;0.50;;
18322;SDS011;9287;49.456;11.064;2023-11-19T14:56:20;1.70;;;0.50;;
18322;SDS011;9287;49.456;11.064;2023-11-19T14:58:48;1.73;;;0.50;;
18322;SDS011;9287;49.456;11.064;2023-11-19T15:01:18;2.40;;;0.50;;
18322;SDS011;9287;49.456;11.064;2023-11-19T15:03:47;1.33;;;0.70;;